AEE56N LUKK-LGAV
Flight info
| Callsign | AEE56N |
|---|---|
| Flight time | 1h 33m |
| Altitude | 36000 |
| Route | LIPTA DCT KODRU DCT SOMOV DCT OTKOK/N0443F370 N127 NIKTI DCT GIKAS UL608 LUPIS UT162 AMISI T162 NEVRA |
| Aircraft | A320/M-SDE3FGHIRWY/LB1 |
Departure
| Time | 2026-05-06 08:10 |
|---|---|
| Airport | Chişinău International Airport (LUKK) |
Arrival
| Time | 2026-05-06 09:43 |
|---|---|
| Airport | Athens Eleftherios Venizelos International Airport (LGAV) |
| Time | Latitude | Longitude | Altitude | Speed | Heading |
|---|---|---|---|---|---|
| 2026-05-06 07:44 | 46.93375 | 28.93546 | 408 ft | 0 kts | 6° |
| 2026-05-06 08:05 | 46.93382 | 28.93547 | 408 ft | 2 kts | 6° |
| 2026-05-06 08:06 | 46.93403 | 28.93548 | 408 ft | 4 kts | 352° |
| 2026-05-06 08:06 | 46.93415 | 28.93513 | 408 ft | 5 kts | 273° |
| 2026-05-06 08:06 | 46.93387 | 28.93486 | 408 ft | 6 kts | 187° |
| 2026-05-06 08:06 | 46.93338 | 28.93477 | 408 ft | 8 kts | 187° |
| 2026-05-06 08:07 | 46.93276 | 28.93466 | 408 ft | 10 kts | 187° |
| 2026-05-06 08:07 | 46.93200 | 28.93452 | 409 ft | 11 kts | 187° |
| 2026-05-06 08:07 | 46.93122 | 28.93438 | 411 ft | 12 kts | 187° |
| 2026-05-06 08:07 | 46.93024 | 28.93421 | 409 ft | 16 kts | 187° |
| 2026-05-06 08:08 | 46.92920 | 28.93413 | 405 ft | 7 kts | 175° |
| 2026-05-06 08:08 | 46.92912 | 28.93414 | 407 ft | 0 kts | 176° |
| 2026-05-06 08:08 | 46.92898 | 28.93415 | 408 ft | 6 kts | 176° |
| 2026-05-06 08:08 | 46.92837 | 28.93418 | 409 ft | 11 kts | 179° |
| 2026-05-06 08:09 | 46.92786 | 28.93400 | 408 ft | 0 kts | 264° |
| 2026-05-06 08:09 | 46.92787 | 28.93398 | 408 ft | 0 kts | 266° |
| 2026-05-06 08:09 | 46.92780 | 28.93124 | 408 ft | 70 kts | 268° |
| 2026-05-06 08:10 | 46.92758 | 28.92011 | 411 ft | 144 kts | 268° |
| 2026-05-06 08:10 | 46.92716 | 28.90392 | 892 ft | 167 kts | 265° |
| 2026-05-06 08:10 | 46.92681 | 28.88632 | 1686 ft | 178 kts | 265° |
| 2026-05-06 08:10 | 46.92648 | 28.86840 | 2535 ft | 173 kts | 266° |
| 2026-05-06 08:11 | 46.92612 | 28.84993 | 2865 ft | 195 kts | 266° |
| 2026-05-06 08:11 | 46.92563 | 28.82907 | 3157 ft | 216 kts | 265° |
| 2026-05-06 08:11 | 46.92231 | 28.80676 | 3518 ft | 236 kts | 242° |
| 2026-05-06 08:11 | 46.91131 | 28.78805 | 4015 ft | 254 kts | 215° |
| 2026-05-06 08:12 | 46.89571 | 28.77452 | 4679 ft | 266 kts | 206° |
| 2026-05-06 08:12 | 46.87985 | 28.76001 | 5459 ft | 274 kts | 221° |
| 2026-05-06 08:12 | 46.86553 | 28.74112 | 6285 ft | 280 kts | 222° |
| 2026-05-06 08:12 | 46.85098 | 28.72165 | 7080 ft | 286 kts | 222° |
| 2026-05-06 08:13 | 46.83621 | 28.70184 | 7877 ft | 291 kts | 222° |
| 2026-05-06 08:13 | 46.82117 | 28.68174 | 8696 ft | 294 kts | 222° |
| 2026-05-06 08:13 | 46.80594 | 28.66145 | 9504 ft | 299 kts | 221° |
| 2026-05-06 08:13 | 46.79041 | 28.64084 | 10236 ft | 305 kts | 221° |
| 2026-05-06 08:14 | 46.77410 | 28.61927 | 10482 ft | 328 kts | 221° |
| 2026-05-06 08:14 | 46.75657 | 28.59615 | 10646 ft | 351 kts | 221° |
| 2026-05-06 08:14 | 46.73807 | 28.57177 | 11068 ft | 363 kts | 221° |
| 2026-05-06 08:14 | 46.71917 | 28.54686 | 11691 ft | 369 kts | 221° |
| 2026-05-06 08:15 | 46.70005 | 28.52165 | 12340 ft | 372 kts | 221° |
| 2026-05-06 08:15 | 46.68079 | 28.49624 | 13006 ft | 376 kts | 222° |
| 2026-05-06 08:15 | 46.66128 | 28.47049 | 13672 ft | 380 kts | 222° |
| 2026-05-06 08:15 | 46.64162 | 28.44463 | 14278 ft | 383 kts | 222° |
| 2026-05-06 08:16 | 46.62197 | 28.41882 | 14849 ft | 387 kts | 221° |
| 2026-05-06 08:16 | 46.60162 | 28.39220 | 15435 ft | 390 kts | 221° |
| 2026-05-06 08:16 | 46.58158 | 28.36602 | 15971 ft | 394 kts | 221° |
| 2026-05-06 08:16 | 46.56113 | 28.33931 | 16531 ft | 397 kts | 221° |
| 2026-05-06 08:17 | 46.54051 | 28.31239 | 17102 ft | 400 kts | 221° |
| 2026-05-06 08:17 | 46.51974 | 28.28528 | 17679 ft | 403 kts | 221° |
| 2026-05-06 08:17 | 46.49876 | 28.25790 | 18246 ft | 407 kts | 221° |
| 2026-05-06 08:17 | 46.47763 | 28.23034 | 18739 ft | 410 kts | 221° |
| 2026-05-06 08:18 | 46.45630 | 28.20255 | 19236 ft | 414 kts | 221° |
| 2026-05-06 08:18 | 46.43480 | 28.17460 | 19739 ft | 417 kts | 221° |
| 2026-05-06 08:18 | 46.41312 | 28.14645 | 20257 ft | 420 kts | 221° |
| 2026-05-06 08:18 | 46.39127 | 28.11816 | 20752 ft | 423 kts | 221° |
| 2026-05-06 08:19 | 46.36926 | 28.08970 | 21228 ft | 426 kts | 221° |
| 2026-05-06 08:19 | 46.34711 | 28.06104 | 21693 ft | 428 kts | 221° |
| 2026-05-06 08:19 | 46.32483 | 28.03217 | 22146 ft | 431 kts | 221° |
| 2026-05-06 08:19 | 46.30267 | 28.00350 | 22571 ft | 434 kts | 221° |
| 2026-05-06 08:20 | 46.28007 | 27.97435 | 23027 ft | 437 kts | 221° |
| 2026-05-06 08:20 | 46.25731 | 27.94507 | 23484 ft | 439 kts | 221° |
| 2026-05-06 08:20 | 46.23441 | 27.91560 | 23875 ft | 442 kts | 221° |
| 2026-05-06 08:20 | 46.21139 | 27.88601 | 24263 ft | 444 kts | 222° |
| 2026-05-06 08:21 | 46.18827 | 27.85634 | 24653 ft | 446 kts | 222° |
| 2026-05-06 08:21 | 46.16503 | 27.82661 | 25030 ft | 447 kts | 221° |
| 2026-05-06 08:21 | 46.14169 | 27.79677 | 25395 ft | 449 kts | 221° |
| 2026-05-06 08:21 | 46.11824 | 27.76683 | 25758 ft | 451 kts | 221° |
| 2026-05-06 08:22 | 46.09469 | 27.73679 | 26113 ft | 453 kts | 221° |
| 2026-05-06 08:22 | 46.07099 | 27.70654 | 26486 ft | 455 kts | 222° |
| 2026-05-06 08:22 | 46.04724 | 27.67624 | 26865 ft | 457 kts | 222° |
| 2026-05-06 08:22 | 46.02341 | 27.64583 | 27253 ft | 459 kts | 222° |
| 2026-05-06 08:23 | 45.99946 | 27.61531 | 27588 ft | 461 kts | 222° |
| 2026-05-06 08:23 | 45.97536 | 27.58467 | 27957 ft | 464 kts | 222° |
| 2026-05-06 08:23 | 45.95112 | 27.55394 | 28316 ft | 465 kts | 222° |
| 2026-05-06 08:23 | 45.92676 | 27.52311 | 28678 ft | 467 kts | 222° |
| 2026-05-06 08:24 | 45.90240 | 27.49230 | 29141 ft | 466 kts | 222° |
| 2026-05-06 08:24 | 45.87814 | 27.46160 | 29672 ft | 464 kts | 222° |
| 2026-05-06 08:24 | 45.85424 | 27.43141 | 30191 ft | 462 kts | 222° |
| 2026-05-06 08:24 | 45.83018 | 27.40107 | 30627 ft | 461 kts | 222° |
| 2026-05-06 08:25 | 45.80608 | 27.37070 | 31046 ft | 460 kts | 222° |
| 2026-05-06 08:25 | 45.78205 | 27.34051 | 31467 ft | 459 kts | 222° |
| 2026-05-06 08:25 | 45.75808 | 27.31048 | 31875 ft | 458 kts | 222° |
| 2026-05-06 08:25 | 45.73409 | 27.28038 | 32276 ft | 458 kts | 222° |
| 2026-05-06 08:26 | 45.71014 | 27.25038 | 32692 ft | 457 kts | 222° |
| 2026-05-06 08:26 | 45.68624 | 27.22049 | 33110 ft | 456 kts | 223° |
| 2026-05-06 08:26 | 45.66241 | 27.19068 | 33557 ft | 455 kts | 223° |
| 2026-05-06 08:26 | 45.63861 | 27.16095 | 33997 ft | 454 kts | 223° |
| 2026-05-06 08:27 | 45.61485 | 27.13128 | 34361 ft | 453 kts | 223° |
| 2026-05-06 08:27 | 45.59107 | 27.10166 | 34711 ft | 452 kts | 223° |
| 2026-05-06 08:27 | 45.56737 | 27.07219 | 35047 ft | 451 kts | 223° |
| 2026-05-06 08:27 | 45.54374 | 27.04285 | 35380 ft | 451 kts | 223° |
| 2026-05-06 08:28 | 45.52003 | 27.01347 | 35718 ft | 450 kts | 223° |
| 2026-05-06 08:28 | 45.49641 | 26.98420 | 35984 ft | 450 kts | 223° |
| 2026-05-06 08:28 | 45.44880 | 26.92514 | 36045 ft | 458 kts | 223° |
| 2026-05-06 08:29 | 45.40062 | 26.86561 | 36057 ft | 459 kts | 223° |
| 2026-05-06 08:29 | 45.35232 | 26.80615 | 36055 ft | 460 kts | 223° |
| 2026-05-06 08:30 | 45.30425 | 26.74706 | 36053 ft | 460 kts | 223° |
| 2026-05-06 08:30 | 45.25589 | 26.68768 | 36060 ft | 460 kts | 223° |
| 2026-05-06 08:31 | 45.20747 | 26.62843 | 36049 ft | 460 kts | 223° |
| 2026-05-06 08:31 | 45.15898 | 26.56925 | 36048 ft | 460 kts | 223° |
| 2026-05-06 08:32 | 45.11865 | 26.52017 | 36046 ft | 460 kts | 223° |
| 2026-05-06 08:32 | 45.07005 | 26.46117 | 36058 ft | 460 kts | 223° |
| 2026-05-06 08:33 | 45.02138 | 26.40217 | 36039 ft | 460 kts | 223° |
| 2026-05-06 08:33 | 44.97274 | 26.34333 | 36049 ft | 460 kts | 223° |
| 2026-05-06 08:34 | 44.89979 | 26.25507 | 36051 ft | 460 kts | 223° |
| 2026-05-06 08:35 | 44.85108 | 26.19653 | 36048 ft | 460 kts | 223° |
| 2026-05-06 08:35 | 44.80222 | 26.13802 | 36045 ft | 460 kts | 223° |
| 2026-05-06 08:36 | 44.75342 | 26.07967 | 36053 ft | 460 kts | 223° |
| 2026-05-06 08:36 | 44.70463 | 26.02137 | 36047 ft | 460 kts | 223° |
| 2026-05-06 08:37 | 44.65619 | 25.96361 | 36054 ft | 460 kts | 223° |
| 2026-05-06 08:37 | 44.60742 | 25.90558 | 36058 ft | 460 kts | 223° |
| 2026-05-06 08:38 | 44.55863 | 25.84766 | 36050 ft | 459 kts | 223° |
| 2026-05-06 08:38 | 44.50984 | 25.78990 | 36054 ft | 459 kts | 223° |
| 2026-05-06 08:39 | 44.46104 | 25.73231 | 36054 ft | 459 kts | 223° |
| 2026-05-06 08:39 | 44.41221 | 25.67488 | 36052 ft | 458 kts | 223° |
| 2026-05-06 08:40 | 44.36339 | 25.61751 | 36044 ft | 458 kts | 223° |
| 2026-05-06 08:40 | 44.31460 | 25.56027 | 36044 ft | 458 kts | 223° |
| 2026-05-06 08:41 | 44.26584 | 25.50308 | 36044 ft | 458 kts | 223° |
| 2026-05-06 08:41 | 44.21703 | 25.44604 | 36037 ft | 458 kts | 223° |
| 2026-05-06 08:42 | 44.16821 | 25.38918 | 36041 ft | 458 kts | 223° |
| 2026-05-06 08:42 | 44.11934 | 25.33237 | 36040 ft | 457 kts | 223° |
| 2026-05-06 08:43 | 44.07044 | 25.27572 | 36033 ft | 457 kts | 223° |
| 2026-05-06 08:43 | 44.02155 | 25.21910 | 36038 ft | 457 kts | 223° |
| 2026-05-06 08:44 | 43.97292 | 25.16295 | 36040 ft | 457 kts | 223° |
| 2026-05-06 08:44 | 43.92396 | 25.10658 | 36043 ft | 457 kts | 223° |
| 2026-05-06 08:45 | 43.87504 | 25.05026 | 36040 ft | 457 kts | 223° |
| 2026-05-06 08:45 | 43.82605 | 24.99394 | 36036 ft | 457 kts | 223° |
| 2026-05-06 08:46 | 43.77702 | 24.93782 | 36035 ft | 457 kts | 223° |
| 2026-05-06 08:46 | 43.72784 | 24.88181 | 36024 ft | 458 kts | 223° |
| 2026-05-06 08:47 | 43.67277 | 24.83621 | 36031 ft | 466 kts | 204° |
| 2026-05-06 08:47 | 43.61176 | 24.80545 | 36035 ft | 467 kts | 203° |
| 2026-05-06 08:48 | 43.55108 | 24.77477 | 36023 ft | 467 kts | 203° |
| 2026-05-06 08:48 | 43.49008 | 24.74388 | 36021 ft | 467 kts | 203° |
| 2026-05-06 08:49 | 43.42901 | 24.71311 | 36021 ft | 468 kts | 203° |
| 2026-05-06 08:49 | 43.36784 | 24.68245 | 36013 ft | 468 kts | 204° |
| 2026-05-06 08:50 | 43.30656 | 24.65182 | 36012 ft | 468 kts | 203° |
| 2026-05-06 08:50 | 43.24521 | 24.62118 | 36018 ft | 469 kts | 204° |
| 2026-05-06 08:51 | 43.18372 | 24.59047 | 36013 ft | 469 kts | 204° |
| 2026-05-06 08:51 | 43.12274 | 24.56012 | 36023 ft | 469 kts | 204° |
| 2026-05-06 08:52 | 43.06130 | 24.52970 | 36020 ft | 469 kts | 204° |
| 2026-05-06 08:52 | 42.99973 | 24.49923 | 36029 ft | 470 kts | 204° |
| 2026-05-06 08:53 | 42.93828 | 24.46881 | 36040 ft | 470 kts | 204° |
| 2026-05-06 08:53 | 42.87676 | 24.43847 | 36034 ft | 470 kts | 204° |
| 2026-05-06 08:54 | 42.81559 | 24.40830 | 36049 ft | 470 kts | 204° |
| 2026-05-06 08:54 | 42.75403 | 24.37797 | 36070 ft | 470 kts | 204° |
| 2026-05-06 08:55 | 42.69243 | 24.34785 | 36075 ft | 470 kts | 204° |
| 2026-05-06 08:55 | 42.63077 | 24.31772 | 36083 ft | 470 kts | 204° |
| 2026-05-06 08:56 | 42.56915 | 24.28775 | 36087 ft | 471 kts | 204° |
| 2026-05-06 08:56 | 42.50749 | 24.25770 | 36074 ft | 471 kts | 204° |
| 2026-05-06 08:57 | 42.44581 | 24.22765 | 36077 ft | 471 kts | 204° |
| 2026-05-06 08:57 | 42.38408 | 24.19762 | 36088 ft | 471 kts | 204° |
| 2026-05-06 08:58 | 42.32265 | 24.16782 | 36083 ft | 472 kts | 204° |
| 2026-05-06 08:58 | 42.26081 | 24.13798 | 36086 ft | 472 kts | 204° |
| 2026-05-06 08:59 | 42.19881 | 24.10822 | 36090 ft | 473 kts | 204° |
| 2026-05-06 08:59 | 42.13677 | 24.07846 | 36094 ft | 473 kts | 204° |
| 2026-05-06 09:00 | 42.07484 | 24.04868 | 36078 ft | 473 kts | 205° |
| 2026-05-06 09:00 | 42.01139 | 24.02429 | 36320 ft | 480 kts | 192° |
| 2026-05-06 09:00 | 41.97783 | 24.02117 | 36575 ft | 484 kts | 182° |
| 2026-05-06 09:01 | 41.94423 | 24.02565 | 36830 ft | 487 kts | 172° |
| 2026-05-06 09:01 | 41.91079 | 24.03357 | 37032 ft | 487 kts | 172° |
| 2026-05-06 09:01 | 41.87755 | 24.04166 | 37085 ft | 486 kts | 172° |
| 2026-05-06 09:02 | 41.81108 | 24.05804 | 37068 ft | 485 kts | 172° |
| 2026-05-06 09:02 | 41.74496 | 24.07411 | 37081 ft | 486 kts | 172° |
| 2026-05-06 09:03 | 41.67847 | 24.09008 | 37079 ft | 485 kts | 173° |
| 2026-05-06 09:03 | 41.61181 | 24.10257 | 37060 ft | 481 kts | 176° |
| 2026-05-06 09:04 | 41.54527 | 24.11247 | 37045 ft | 481 kts | 177° |
| 2026-05-06 09:04 | 41.47892 | 24.12149 | 37048 ft | 483 kts | 177° |
| 2026-05-06 09:05 | 41.41194 | 24.13053 | 37047 ft | 484 kts | 177° |
| 2026-05-06 09:05 | 41.34472 | 24.13977 | 37060 ft | 485 kts | 177° |
| 2026-05-06 09:06 | 41.27754 | 24.14911 | 37074 ft | 486 kts | 177° |
| 2026-05-06 09:06 | 41.21033 | 24.15844 | 37070 ft | 486 kts | 177° |
| 2026-05-06 09:07 | 41.14308 | 24.16774 | 37074 ft | 486 kts | 177° |
| 2026-05-06 09:07 | 41.07575 | 24.17694 | 37084 ft | 487 kts | 177° |
| 2026-05-06 09:08 | 41.00873 | 24.18616 | 37078 ft | 487 kts | 177° |
| 2026-05-06 09:08 | 40.94136 | 24.19539 | 37086 ft | 487 kts | 178° |
| 2026-05-06 09:09 | 40.87375 | 24.20463 | 37094 ft | 487 kts | 178° |
| 2026-05-06 09:09 | 40.80629 | 24.21391 | 37088 ft | 487 kts | 177° |
| 2026-05-06 09:10 | 40.73871 | 24.22318 | 37107 ft | 488 kts | 178° |
| 2026-05-06 09:10 | 40.67117 | 24.23237 | 37108 ft | 488 kts | 178° |
| 2026-05-06 09:11 | 40.60362 | 24.24150 | 37113 ft | 488 kts | 178° |
| 2026-05-06 09:11 | 40.53607 | 24.25062 | 37108 ft | 488 kts | 178° |
| 2026-05-06 09:12 | 40.46896 | 24.25977 | 37109 ft | 488 kts | 178° |
| 2026-05-06 09:12 | 40.40109 | 24.26893 | 37111 ft | 487 kts | 178° |
| 2026-05-06 09:13 | 40.33399 | 24.27795 | 37109 ft | 487 kts | 178° |
| 2026-05-06 09:13 | 40.26637 | 24.28702 | 37115 ft | 487 kts | 178° |
| 2026-05-06 09:14 | 40.19883 | 24.29605 | 37114 ft | 487 kts | 178° |
| 2026-05-06 09:14 | 40.13135 | 24.30502 | 37116 ft | 487 kts | 178° |
| 2026-05-06 09:15 | 40.06429 | 24.31404 | 37117 ft | 487 kts | 178° |
| 2026-05-06 09:15 | 39.99685 | 24.32306 | 37117 ft | 487 kts | 178° |
| 2026-05-06 09:16 | 39.92945 | 24.33192 | 37116 ft | 487 kts | 178° |
| 2026-05-06 09:16 | 39.86198 | 24.34078 | 37116 ft | 487 kts | 178° |
| 2026-05-06 09:17 | 39.79457 | 24.34967 | 37114 ft | 486 kts | 178° |
| 2026-05-06 09:17 | 39.72731 | 24.35859 | 37099 ft | 486 kts | 178° |
| 2026-05-06 09:18 | 39.66045 | 24.36758 | 37110 ft | 485 kts | 178° |
| 2026-05-06 09:18 | 39.59309 | 24.37666 | 37110 ft | 485 kts | 178° |
| 2026-05-06 09:19 | 39.53722 | 24.38392 | 37103 ft | 485 kts | 178° |
| 2026-05-06 09:19 | 39.47011 | 24.39265 | 37110 ft | 485 kts | 178° |
| 2026-05-06 09:20 | 39.40297 | 24.40138 | 37106 ft | 485 kts | 178° |
| 2026-05-06 09:20 | 39.33602 | 24.41012 | 37097 ft | 485 kts | 178° |
| 2026-05-06 09:21 | 39.26884 | 24.41899 | 37099 ft | 485 kts | 178° |
| 2026-05-06 09:21 | 39.20157 | 24.42787 | 37102 ft | 485 kts | 178° |
| 2026-05-06 09:22 | 39.13433 | 24.43664 | 37104 ft | 485 kts | 178° |
| 2026-05-06 09:22 | 39.06756 | 24.44520 | 37093 ft | 484 kts | 178° |
| 2026-05-06 09:23 | 39.00043 | 24.45379 | 37107 ft | 484 kts | 178° |
| 2026-05-06 09:23 | 38.93340 | 24.46249 | 37113 ft | 484 kts | 178° |
| 2026-05-06 09:24 | 38.86647 | 24.47115 | 37099 ft | 483 kts | 178° |
| 2026-05-06 09:24 | 38.79956 | 24.47979 | 37119 ft | 483 kts | 178° |
| 2026-05-06 09:24 | 38.76603 | 24.48412 | 36999 ft | 481 kts | 178° |
| 2026-05-06 09:25 | 38.73271 | 24.48841 | 36416 ft | 481 kts | 178° |
| 2026-05-06 09:25 | 38.69930 | 24.49270 | 35775 ft | 483 kts | 178° |
| 2026-05-06 09:25 | 38.66581 | 24.49701 | 35080 ft | 485 kts | 178° |
| 2026-05-06 09:25 | 38.63261 | 24.50128 | 34424 ft | 486 kts | 177° |
| 2026-05-06 09:26 | 38.59879 | 24.50559 | 33696 ft | 489 kts | 177° |
| 2026-05-06 09:26 | 38.56481 | 24.50991 | 32908 ft | 491 kts | 177° |
| 2026-05-06 09:26 | 38.53071 | 24.51424 | 32125 ft | 492 kts | 178° |
| 2026-05-06 09:26 | 38.49663 | 24.51424 | 31352 ft | 486 kts | 192° |
| 2026-05-06 09:27 | 38.46433 | 24.50352 | 30580 ft | 479 kts | 204° |
| 2026-05-06 09:27 | 38.43297 | 24.48878 | 29669 ft | 481 kts | 205° |
| 2026-05-06 09:27 | 38.40175 | 24.47374 | 28976 ft | 477 kts | 205° |
| 2026-05-06 09:27 | 38.37081 | 24.45879 | 28340 ft | 472 kts | 205° |
| 2026-05-06 09:28 | 38.34027 | 24.44403 | 27712 ft | 468 kts | 205° |
| 2026-05-06 09:28 | 38.31037 | 24.42958 | 27104 ft | 463 kts | 205° |
| 2026-05-06 09:28 | 38.28033 | 24.41506 | 26506 ft | 459 kts | 205° |
| 2026-05-06 09:28 | 38.25059 | 24.40066 | 25905 ft | 454 kts | 205° |
| 2026-05-06 09:29 | 38.22115 | 24.38639 | 25324 ft | 450 kts | 205° |
| 2026-05-06 09:29 | 38.19201 | 24.37219 | 24753 ft | 445 kts | 205° |
| 2026-05-06 09:29 | 38.16317 | 24.35806 | 24196 ft | 441 kts | 205° |
| 2026-05-06 09:29 | 38.13464 | 24.34406 | 23642 ft | 438 kts | 205° |
| 2026-05-06 09:30 | 38.10666 | 24.33033 | 23006 ft | 434 kts | 205° |
| 2026-05-06 09:30 | 38.07826 | 24.31635 | 22385 ft | 431 kts | 205° |
| 2026-05-06 09:30 | 38.05093 | 24.30244 | 21834 ft | 424 kts | 210° |
| 2026-05-06 09:30 | 38.02549 | 24.28449 | 21169 ft | 413 kts | 215° |
| 2026-05-06 09:31 | 38.00091 | 24.26593 | 20202 ft | 408 kts | 215° |
| 2026-05-06 09:31 | 37.97668 | 24.24749 | 19280 ft | 402 kts | 215° |
| 2026-05-06 09:31 | 37.95292 | 24.22933 | 18379 ft | 396 kts | 215° |
| 2026-05-06 09:31 | 37.92977 | 24.21156 | 17381 ft | 390 kts | 215° |
| 2026-05-06 09:32 | 37.90677 | 24.19368 | 16375 ft | 384 kts | 215° |
| 2026-05-06 09:32 | 37.88426 | 24.17591 | 15411 ft | 378 kts | 215° |
| 2026-05-06 09:32 | 37.86221 | 24.15825 | 14472 ft | 372 kts | 215° |
| 2026-05-06 09:32 | 37.84064 | 24.14062 | 13544 ft | 366 kts | 215° |
| 2026-05-06 09:33 | 37.81950 | 24.12308 | 12556 ft | 361 kts | 215° |
| 2026-05-06 09:33 | 37.79866 | 24.10575 | 11594 ft | 355 kts | 215° |
| 2026-05-06 09:33 | 37.77816 | 24.08867 | 10677 ft | 350 kts | 215° |
| 2026-05-06 09:33 | 37.75833 | 24.07216 | 10170 ft | 335 kts | 215° |
| 2026-05-06 09:34 | 37.73957 | 24.05655 | 10041 ft | 311 kts | 215° |
| 2026-05-06 09:34 | 37.72210 | 24.04189 | 9788 ft | 294 kts | 215° |
| 2026-05-06 09:34 | 37.70529 | 24.02777 | 9271 ft | 287 kts | 215° |
| 2026-05-06 09:34 | 37.68868 | 24.01385 | 8710 ft | 283 kts | 215° |
| 2026-05-06 09:35 | 37.67248 | 23.99991 | 8129 ft | 280 kts | 220° |
| 2026-05-06 09:35 | 37.66105 | 23.98113 | 7847 ft | 263 kts | 250° |
| 2026-05-06 09:35 | 37.65860 | 23.95943 | 7716 ft | 242 kts | 278° |
| 2026-05-06 09:35 | 37.66182 | 23.93909 | 7530 ft | 231 kts | 284° |
| 2026-05-06 09:36 | 37.66579 | 23.91966 | 7128 ft | 228 kts | 285° |
| 2026-05-06 09:36 | 37.66983 | 23.90053 | 6802 ft | 229 kts | 285° |
| 2026-05-06 09:36 | 37.67399 | 23.88107 | 6514 ft | 229 kts | 285° |
| 2026-05-06 09:36 | 37.67814 | 23.86171 | 6214 ft | 228 kts | 285° |
| 2026-05-06 09:37 | 37.68231 | 23.84234 | 5902 ft | 228 kts | 285° |
| 2026-05-06 09:37 | 37.68647 | 23.82304 | 5605 ft | 228 kts | 285° |
| 2026-05-06 09:37 | 37.69066 | 23.80374 | 5309 ft | 227 kts | 285° |
| 2026-05-06 09:37 | 37.69564 | 23.78483 | 5004 ft | 227 kts | 300° |
| 2026-05-06 09:38 | 37.70677 | 23.77112 | 4738 ft | 226 kts | 333° |
| 2026-05-06 09:38 | 37.72197 | 23.76730 | 4506 ft | 225 kts | 0° |
| 2026-05-06 09:38 | 37.73740 | 23.76884 | 4273 ft | 224 kts | 5° |
| 2026-05-06 09:38 | 37.75283 | 23.77115 | 4021 ft | 222 kts | 5° |
| 2026-05-06 09:39 | 37.76783 | 23.77492 | 3804 ft | 219 kts | 22° |
| 2026-05-06 09:39 | 37.78042 | 23.78500 | 3678 ft | 212 kts | 35° |
| 2026-05-06 09:39 | 37.79216 | 23.79620 | 3446 ft | 209 kts | 35° |
| 2026-05-06 09:39 | 37.80356 | 23.80704 | 3178 ft | 202 kts | 35° |
| 2026-05-06 09:40 | 37.81467 | 23.81757 | 2906 ft | 196 kts | 35° |
| 2026-05-06 09:40 | 37.82558 | 23.82790 | 2663 ft | 196 kts | 36° |
| 2026-05-06 09:40 | 37.84716 | 23.84833 | 2137 ft | 186 kts | 36° |
| 2026-05-06 09:41 | 37.85703 | 23.85769 | 1898 ft | 171 kts | 37° |
| 2026-05-06 09:41 | 37.86619 | 23.86637 | 1695 ft | 158 kts | 37° |
| 2026-05-06 09:41 | 37.87468 | 23.87453 | 1446 ft | 151 kts | 37° |
| 2026-05-06 09:41 | 37.88299 | 23.88238 | 1272 ft | 147 kts | 37° |
| 2026-05-06 09:42 | 37.89117 | 23.89012 | 1096 ft | 146 kts | 38° |
| 2026-05-06 09:42 | 37.89931 | 23.89776 | 919 ft | 143 kts | 39° |
| 2026-05-06 09:42 | 37.90713 | 23.90517 | 721 ft | 140 kts | 39° |
| 2026-05-06 09:42 | 37.91485 | 23.91258 | 515 ft | 139 kts | 39° |
| 2026-05-06 09:43 | 37.92255 | 23.91990 | 367 ft | 138 kts | 40° |
| 2026-05-06 09:43 | 37.92996 | 23.92698 | 294 ft | 120 kts | 39° |
| 2026-05-06 09:43 | 37.93553 | 23.93226 | 292 ft | 82 kts | 37° |
| 2026-05-06 09:43 | 37.93821 | 23.93485 | 293 ft | 31 kts | 44° |
| 2026-05-06 09:44 | 37.93934 | 23.93704 | 298 ft | 24 kts | 65° |
| 2026-05-06 09:44 | 37.93954 | 23.93778 | 298 ft | 6 kts | 89° |
| 2026-05-06 09:44 | 37.93929 | 23.93818 | 299 ft | 6 kts | 152° |
| 2026-05-06 09:44 | 37.93874 | 23.93806 | 303 ft | 10 kts | 209° |
| 2026-05-06 09:45 | 37.93798 | 23.93734 | 299 ft | 16 kts | 217° |
| 2026-05-06 09:45 | 37.93701 | 23.93643 | 301 ft | 19 kts | 217° |
| 2026-05-06 09:45 | 37.93600 | 23.93548 | 299 ft | 13 kts | 217° |
| 2026-05-06 09:45 | 37.93533 | 23.93484 | 300 ft | 13 kts | 216° |
| 2026-05-06 09:46 | 37.93452 | 23.93428 | 299 ft | 13 kts | 174° |
| 2026-05-06 09:46 | 37.93387 | 23.93512 | 303 ft | 15 kts | 127° |
| 2026-05-06 09:46 | 37.93321 | 23.93623 | 301 ft | 17 kts | 126° |
| 2026-05-06 09:46 | 37.93246 | 23.93751 | 303 ft | 19 kts | 128° |
| 2026-05-06 09:47 | 37.93159 | 23.93894 | 302 ft | 21 kts | 127° |
| 2026-05-06 09:47 | 37.93067 | 23.94047 | 301 ft | 22 kts | 127° |
| 2026-05-06 09:47 | 37.92979 | 23.94195 | 301 ft | 13 kts | 127° |
| 2026-05-06 09:47 | 37.92920 | 23.94293 | 301 ft | 15 kts | 127° |
| 2026-05-06 09:48 | 37.92880 | 23.94390 | 301 ft | 11 kts | 82° |
| 2026-05-06 09:48 | 37.92937 | 23.94459 | 301 ft | 12 kts | 37° |
| 2026-05-06 09:48 | 37.93009 | 23.94528 | 302 ft | 14 kts | 37° |
| 2026-05-06 09:48 | 37.93089 | 23.94605 | 302 ft | 15 kts | 37° |
| 2026-05-06 09:49 | 37.93177 | 23.94687 | 301 ft | 16 kts | 36° |
| 2026-05-06 09:49 | 37.93269 | 23.94776 | 300 ft | 13 kts | 37° |
| 2026-05-06 09:49 | 37.93341 | 23.94751 | 304 ft | 12 kts | 329° |
| 2026-05-06 09:49 | 37.93398 | 23.94675 | 304 ft | 12 kts | 308° |
| 2026-05-06 09:50 | 37.93413 | 23.94651 | 301 ft | 1 kts | 308° |
| 2026-05-06 09:50 | 37.93415 | 23.94648 | 301 ft | 0 kts | 308° |